sensor_id;sensor_type;location;lat;lon;timestamp;P1;durP1;ratioP1;P2;durP2;ratioP2
9767;SDS011;4923;52.520;13.494;2023-12-20T00:01:31;2.70;;;2.60;;
9767;SDS011;4923;52.520;13.494;2023-12-20T00:04:18;2.60;;;2.50;;
9767;SDS011;4923;52.520;13.494;2023-12-20T00:07:05;3.67;;;2.63;;
9767;SDS011;4923;52.520;13.494;2023-12-20T00:09:53;3.15;;;2.95;;
9767;SDS011;4923;52.520;13.494;2023-12-20T00:12:40;2.80;;;2.70;;
9767;SDS011;4923;52.520;13.494;2023-12-20T00:15:27;3.08;;;2.20;;
9767;SDS011;4923;52.520;13.494;2023-12-20T00:18:14;2.60;;;2.50;;
9767;SDS011;4923;52.520;13.494;2023-12-20T00:21:01;2.40;;;2.40;;
9767;SDS011;4923;52.520;13.494;2023-12-20T00:23:48;1.95;;;1.95;;
9767;SDS011;4923;52.520;13.494;2023-12-20T00:26:36;2.90;;;2.80;;
9767;SDS011;4923;52.520;13.494;2023-12-20T00:29:23;2.53;;;2.33;;
9767;SDS011;4923;52.520;13.494;2023-12-20T00:32:10;2.47;;;2.38;;
9767;SDS011;4923;52.520;13.494;2023-12-20T00:34:56;2.33;;;2.25;;
9767;SDS011;4923;52.520;13.494;2023-12-20T00:37:43;2.65;;;2.58;;
9767;SDS011;4923;52.520;13.494;2023-12-20T00:40:30;2.25;;;2.25;;
9767;SDS011;4923;52.520;13.494;2023-12-20T00:43:19;5.85;;;2.88;;
9767;SDS011;4923;52.520;13.494;2023-12-20T00:46:06;2.60;;;2.50;;
9767;SDS011;4923;52.520;13.494;2023-12-20T00:48:53;2.50;;;2.42;;
9767;SDS011;4923;52.520;13.494;2023-12-20T00:51:40;2.10;;;2.10;;
9767;SDS011;4923;52.520;13.494;2023-12-20T00:54:27;2.40;;;2.40;;
9767;SDS011;4923;52.520;13.494;2023-12-20T00:57:16;2.00;;;2.00;;
9767;SDS011;4923;52.520;13.494;2023-12-20T01:00:05;2.60;;;2.60;;
9767;SDS011;4923;52.520;13.494;2023-12-20T01:02:53;2.40;;;2.30;;
9767;SDS011;4923;52.520;13.494;2023-12-20T01:05:39;2.42;;;2.42;;
9767;SDS011;4923;52.520;13.494;2023-12-20T01:08:26;3.17;;;3.08;;
9767;SDS011;4923;52.520;13.494;2023-12-20T01:11:13;2.75;;;2.55;;
9767;SDS011;4923;52.520;13.494;2023-12-20T01:14:00;2.85;;;2.78;;
9767;SDS011;4923;52.520;13.494;2023-12-20T01:16:48;2.80;;;2.70;;
9767;SDS011;4923;52.520;13.494;2023-12-20T01:19:35;3.05;;;2.92;;
9767;SDS011;4923;52.520;13.494;2023-12-20T01:22:22;4.43;;;3.08;;
9767;SDS011;4923;52.520;13.494;2023-12-20T01:25:09;2.80;;;2.75;;
9767;SDS011;4923;52.520;13.494;2023-12-20T01:27:56;2.83;;;2.72;;
9767;SDS011;4923;52.520;13.494;2023-12-20T01:30:43;2.33;;;2.33;;
9767;SDS011;4923;52.520;13.494;2023-12-20T01:33:31;2.53;;;2.53;;
9767;SDS011;4923;52.520;13.494;2023-12-20T01:36:18;2.67;;;2.67;;
9767;SDS011;4923;52.520;13.494;2023-12-20T01:39:05;3.58;;;3.20;;
9767;SDS011;4923;52.520;13.494;2023-12-20T01:41:51;2.72;;;2.53;;
9767;SDS011;4923;52.520;13.494;2023-12-20T01:44:38;2.20;;;2.20;;
9767;SDS011;4923;52.520;13.494;2023-12-20T01:47:25;2.20;;;2.20;;
9767;SDS011;4923;52.520;13.494;2023-12-20T01:50:13;2.25;;;2.25;;
9767;SDS011;4923;52.520;13.494;2023-12-20T01:53:01;2.20;;;2.10;;
9767;SDS011;4923;52.520;13.494;2023-12-20T01:55:48;1.80;;;1.80;;
9767;SDS011;4923;52.520;13.494;2023-12-20T01:58:38;2.10;;;2.10;;
9767;SDS011;4923;52.520;13.494;2023-12-20T02:01:29;2.80;;;2.70;;
9767;SDS011;4923;52.520;13.494;2023-12-20T02:04:17;2.22;;;2.22;;
9767;SDS011;4923;52.520;13.494;2023-12-20T02:07:05;2.13;;;2.08;;
9767;SDS011;4923;52.520;13.494;2023-12-20T02:09:54;1.42;;;1.42;;
9767;SDS011;4923;52.520;13.494;2023-12-20T02:12:41;1.17;;;1.17;;
9767;SDS011;4923;52.520;13.494;2023-12-20T02:15:28;1.40;;;1.30;;
9767;SDS011;4923;52.520;13.494;2023-12-20T02:18:15;1.10;;;1.10;;
9767;SDS011;4923;52.520;13.494;2023-12-20T02:21:03;0.80;;;0.80;;
9767;SDS011;4923;52.520;13.494;2023-12-20T02:23:52;4.32;;;0.95;;
9767;SDS011;4923;52.520;13.494;2023-12-20T02:26:38;0.77;;;0.77;;
9767;SDS011;4923;52.520;13.494;2023-12-20T02:29:26;0.60;;;0.60;;
9767;SDS011;4923;52.520;13.494;2023-12-20T02:32:13;1.67;;;0.73;;
9767;SDS011;4923;52.520;13.494;2023-12-20T02:35:00;7.95;;;0.65;;
9767;SDS011;4923;52.520;13.494;2023-12-20T02:37:47;3.30;;;0.60;;
9767;SDS011;4923;52.520;13.494;2023-12-20T02:40:35;3.60;;;0.60;;
9767;SDS011;4923;52.520;13.494;2023-12-20T02:43:22;0.45;;;0.45;;
9767;SDS011;4923;52.520;13.494;2023-12-20T02:46:09;0.50;;;0.50;;
9767;SDS011;4923;52.520;13.494;2023-12-20T02:48:56;0.70;;;0.70;;
9767;SDS011;4923;52.520;13.494;2023-12-20T02:51:42;1.95;;;0.68;;
9767;SDS011;4923;52.520;13.494;2023-12-20T02:54:29;1.17;;;0.95;;
9767;SDS011;4923;52.520;13.494;2023-12-20T02:57:17;1.10;;;1.10;;
9767;SDS011;4923;52.520;13.494;2023-12-20T03:00:05;1.33;;;1.33;;
9767;SDS011;4923;52.520;13.494;2023-12-20T03:02:53;1.60;;;1.60;;
9767;SDS011;4923;52.520;13.494;2023-12-20T03:05:39;1.60;;;1.60;;
9767;SDS011;4923;52.520;13.494;2023-12-20T03:08:26;8.77;;;1.65;;
9767;SDS011;4923;52.520;13.494;2023-12-20T03:11:13;1.95;;;1.80;;
9767;SDS011;4923;52.520;13.494;2023-12-20T03:14:01;2.08;;;1.98;;
9767;SDS011;4923;52.520;13.494;2023-12-20T03:16:48;5.80;;;1.35;;
9767;SDS011;4923;52.520;13.494;2023-12-20T03:19:36;1.50;;;1.40;;
9767;SDS011;4923;52.520;13.494;2023-12-20T03:22:22;1.73;;;1.63;;
9767;SDS011;4923;52.520;13.494;2023-12-20T03:25:09;5.15;;;1.30;;
9767;SDS011;4923;52.520;13.494;2023-12-20T03:27:56;1.77;;;1.33;;
9767;SDS011;4923;52.520;13.494;2023-12-20T03:30:44;4.15;;;1.40;;
9767;SDS011;4923;52.520;13.494;2023-12-20T03:33:31;2.70;;;1.58;;
9767;SDS011;4923;52.520;13.494;2023-12-20T03:36:18;3.60;;;1.70;;
9767;SDS011;4923;52.520;13.494;2023-12-20T03:39:05;13.65;;;1.20;;
9767;SDS011;4923;52.520;13.494;2023-12-20T03:41:52;4.25;;;1.33;;
9767;SDS011;4923;52.520;13.494;2023-12-20T03:44:38;5.57;;;1.83;;
9767;SDS011;4923;52.520;13.494;2023-12-20T03:47:27;3.70;;;1.05;;
9767;SDS011;4923;52.520;13.494;2023-12-20T03:50:14;2.17;;;1.10;;
9767;SDS011;4923;52.520;13.494;2023-12-20T03:53:00;2.75;;;0.88;;
9767;SDS011;4923;52.520;13.494;2023-12-20T03:55:49;1.23;;;1.05;;
9767;SDS011;4923;52.520;13.494;2023-12-20T03:58:36;2.47;;;0.85;;
9767;SDS011;4923;52.520;13.494;2023-12-20T04:01:23;3.15;;;1.35;;
9767;SDS011;4923;52.520;13.494;2023-12-20T04:04:11;5.32;;;1.17;;
9767;SDS011;4923;52.520;13.494;2023-12-20T04:06:58;9.23;;;1.00;;
9767;SDS011;4923;52.520;13.494;2023-12-20T04:09:45;1.67;;;0.90;;
9767;SDS011;4923;52.520;13.494;2023-12-20T04:12:33;6.45;;;1.20;;
9767;SDS011;4923;52.520;13.494;2023-12-20T04:15:20;4.05;;;1.10;;
9767;SDS011;4923;52.520;13.494;2023-12-20T04:18:07;5.32;;;1.70;;
9767;SDS011;4923;52.520;13.494;2023-12-20T04:20:55;1.50;;;1.13;;
9767;SDS011;4923;52.520;13.494;2023-12-20T04:23:42;4.07;;;0.85;;
9767;SDS011;4923;52.520;13.494;2023-12-20T04:26:28;9.93;;;1.05;;
9767;SDS011;4923;52.520;13.494;2023-12-20T04:29:15;4.25;;;0.95;;
9767;SDS011;4923;52.520;13.494;2023-12-20T04:32:02;5.85;;;0.95;;
9767;SDS011;4923;52.520;13.494;2023-12-20T04:34:50;4.15;;;0.70;;
9767;SDS011;4923;52.520;13.494;2023-12-20T04:37:38;7.53;;;0.75;;
9767;SDS011;4923;52.520;13.494;2023-12-20T04:40:25;7.18;;;0.80;;
9767;SDS011;4923;52.520;13.494;2023-12-20T04:43:11;4.15;;;0.80;;
9767;SDS011;4923;52.520;13.494;2023-12-20T04:45:58;5.68;;;0.90;;
9767;SDS011;4923;52.520;13.494;2023-12-20T04:48:45;5.40;;;0.82;;
9767;SDS011;4923;52.520;13.494;2023-12-20T04:51:32;5.60;;;1.23;;
9767;SDS011;4923;52.520;13.494;2023-12-20T04:54:21;4.03;;;0.80;;
9767;SDS011;4923;52.520;13.494;2023-12-20T04:57:08;5.10;;;0.80;;
9767;SDS011;4923;52.520;13.494;2023-12-20T04:59:55;2.30;;;1.40;;
9767;SDS011;4923;52.520;13.494;2023-12-20T05:02:41;4.95;;;0.98;;
9767;SDS011;4923;52.520;13.494;2023-12-20T05:05:28;8.77;;;1.52;;
9767;SDS011;4923;52.520;13.494;2023-12-20T05:08:15;3.80;;;1.15;;
9767;SDS011;4923;52.520;13.494;2023-12-20T05:11:03;8.07;;;1.23;;
9767;SDS011;4923;52.520;13.494;2023-12-20T05:13:50;7.95;;;1.25;;
9767;SDS011;4923;52.520;13.494;2023-12-20T05:16:37;7.47;;;1.05;;
9767;SDS011;4923;52.520;13.494;2023-12-20T05:19:24;12.52;;;1.60;;
9767;SDS011;4923;52.520;13.494;2023-12-20T05:22:11;4.43;;;1.08;;
9767;SDS011;4923;52.520;13.494;2023-12-20T05:24:58;7.45;;;0.68;;
9767;SDS011;4923;52.520;13.494;2023-12-20T05:27:47;5.47;;;1.48;;
9767;SDS011;4923;52.520;13.494;2023-12-20T05:30:34;4.95;;;0.90;;
9767;SDS011;4923;52.520;13.494;2023-12-20T05:33:21;2.20;;;0.65;;
9767;SDS011;4923;52.520;13.494;2023-12-20T05:36:08;3.63;;;1.08;;
9767;SDS011;4923;52.520;13.494;2023-12-20T05:38:56;2.80;;;0.80;;
9767;SDS011;4923;52.520;13.494;2023-12-20T05:41:43;3.15;;;0.85;;
9767;SDS011;4923;52.520;13.494;2023-12-20T05:44:31;3.72;;;0.80;;
9767;SDS011;4923;52.520;13.494;2023-12-20T05:47:18;9.27;;;1.30;;
9767;SDS011;4923;52.520;13.494;2023-12-20T05:50:05;10.75;;;1.05;;
9767;SDS011;4923;52.520;13.494;2023-12-20T05:52:53;4.53;;;0.80;;
9767;SDS011;4923;52.520;13.494;2023-12-20T05:55:40;15.10;;;2.00;;
9767;SDS011;4923;52.520;13.494;2023-12-20T05:58:27;2.72;;;1.67;;
9767;SDS011;4923;52.520;13.494;2023-12-20T06:01:15;2.15;;;1.50;;
9767;SDS011;4923;52.520;13.494;2023-12-20T06:04:03;10.77;;;0.50;;
9767;SDS011;4923;52.520;13.494;2023-12-20T06:06:50;8.68;;;0.98;;
9767;SDS011;4923;52.520;13.494;2023-12-20T06:09:37;11.52;;;1.23;;
9767;SDS011;4923;52.520;13.494;2023-12-20T06:12:23;8.82;;;1.23;;
9767;SDS011;4923;52.520;13.494;2023-12-20T06:15:12;7.53;;;1.00;;
9767;SDS011;4923;52.520;13.494;2023-12-20T06:18:00;1.80;;;0.95;;
9767;SDS011;4923;52.520;13.494;2023-12-20T06:20:47;5.72;;;2.25;;
9767;SDS011;4923;52.520;13.494;2023-12-20T06:23:34;3.53;;;1.92;;
9767;SDS011;4923;52.520;13.494;2023-12-20T06:26:20;8.02;;;1.13;;
9767;SDS011;4923;52.520;13.494;2023-12-20T06:29:07;3.75;;;1.17;;
9767;SDS011;4923;52.520;13.494;2023-12-20T06:31:54;2.90;;;0.90;;
9767;SDS011;4923;52.520;13.494;2023-12-20T06:34:43;2.80;;;0.63;;
9767;SDS011;4923;52.520;13.494;2023-12-20T06:37:29;9.18;;;1.10;;
9767;SDS011;4923;52.520;13.494;2023-12-20T06:40:16;3.45;;;0.85;;
9767;SDS011;4923;52.520;13.494;2023-12-20T06:43:03;2.95;;;1.05;;
9767;SDS011;4923;52.520;13.494;2023-12-20T06:45:52;5.05;;;0.93;;
9767;SDS011;4923;52.520;13.494;2023-12-20T06:48:38;1.95;;;0.85;;
9767;SDS011;4923;52.520;13.494;2023-12-20T06:51:27;6.45;;;1.27;;
9767;SDS011;4923;52.520;13.494;2023-12-20T06:54:16;3.47;;;1.17;;
9767;SDS011;4923;52.520;13.494;2023-12-20T06:57:03;4.55;;;1.00;;
9767;SDS011;4923;52.520;13.494;2023-12-20T06:59:50;4.30;;;1.05;;
9767;SDS011;4923;52.520;13.494;2023-12-20T07:02:37;2.50;;;0.98;;
9767;SDS011;4923;52.520;13.494;2023-12-20T07:05:24;7.70;;;1.00;;
9767;SDS011;4923;52.520;13.494;2023-12-20T07:08:13;5.40;;;0.98;;
9767;SDS011;4923;52.520;13.494;2023-12-20T07:11:00;8.32;;;1.10;;
9767;SDS011;4923;52.520;13.494;2023-12-20T07:13:47;21.02;;;1.67;;
9767;SDS011;4923;52.520;13.494;2023-12-20T07:16:35;5.03;;;0.95;;
9767;SDS011;4923;52.520;13.494;2023-12-20T07:19:21;6.18;;;1.40;;
9767;SDS011;4923;52.520;13.494;2023-12-20T07:22:08;1.90;;;1.05;;
9767;SDS011;4923;52.520;13.494;2023-12-20T07:24:57;9.85;;;1.70;;
9767;SDS011;4923;52.520;13.494;2023-12-20T07:27:43;3.13;;;1.13;;
9767;SDS011;4923;52.520;13.494;2023-12-20T07:30:30;5.38;;;1.00;;
9767;SDS011;4923;52.520;13.494;2023-12-20T07:33:17;2.95;;;1.13;;
9767;SDS011;4923;52.520;13.494;2023-12-20T07:36:04;6.10;;;1.20;;
9767;SDS011;4923;52.520;13.494;2023-12-20T07:38:51;6.25;;;1.27;;
9767;SDS011;4923;52.520;13.494;2023-12-20T07:41:39;6.32;;;1.10;;
9767;SDS011;4923;52.520;13.494;2023-12-20T07:44:26;6.40;;;1.13;;
9767;SDS011;4923;52.520;13.494;2023-12-20T07:47:13;7.45;;;1.25;;
9767;SDS011;4923;52.520;13.494;2023-12-20T07:50:02;3.97;;;1.58;;
9767;SDS011;4923;52.520;13.494;2023-12-20T07:52:49;4.95;;;1.00;;
9767;SDS011;4923;52.520;13.494;2023-12-20T07:55:36;4.40;;;1.10;;
9767;SDS011;4923;52.520;13.494;2023-12-20T07:58:24;13.77;;;1.20;;
9767;SDS011;4923;52.520;13.494;2023-12-20T08:01:11;16.77;;;2.05;;
9767;SDS011;4923;52.520;13.494;2023-12-20T08:03:58;8.98;;;1.58;;
9767;SDS011;4923;52.520;13.494;2023-12-20T08:06:45;3.40;;;1.27;;
9767;SDS011;4923;52.520;13.494;2023-12-20T08:09:32;8.35;;;1.05;;
9767;SDS011;4923;52.520;13.494;2023-12-20T08:12:22;1.40;;;0.85;;
9767;SDS011;4923;52.520;13.494;2023-12-20T08:15:10;14.75;;;1.20;;
9767;SDS011;4923;52.520;13.494;2023-12-20T08:17:57;11.93;;;1.85;;
9767;SDS011;4923;52.520;13.494;2023-12-20T08:20:44;7.70;;;1.13;;
9767;SDS011;4923;52.520;13.494;2023-12-20T08:23:32;3.97;;;0.90;;
9767;SDS011;4923;52.520;13.494;2023-12-20T08:26:19;3.42;;;1.23;;
9767;SDS011;4923;52.520;13.494;2023-12-20T08:29:07;4.22;;;0.98;;
9767;SDS011;4923;52.520;13.494;2023-12-20T08:31:56;2.05;;;0.90;;
9767;SDS011;4923;52.520;13.494;2023-12-20T08:34:43;2.63;;;1.10;;
9767;SDS011;4923;52.520;13.494;2023-12-20T08:37:29;8.23;;;1.10;;
9767;SDS011;4923;52.520;13.494;2023-12-20T08:40:17;7.38;;;1.20;;
9767;SDS011;4923;52.520;13.494;2023-12-20T08:43:04;9.55;;;1.00;;
9767;SDS011;4923;52.520;13.494;2023-12-20T08:45:52;11.82;;;1.55;;
9767;SDS011;4923;52.520;13.494;2023-12-20T08:48:40;6.50;;;1.20;;
9767;SDS011;4923;52.520;13.494;2023-12-20T08:51:27;1.75;;;0.90;;
9767;SDS011;4923;52.520;13.494;2023-12-20T08:54:14;6.32;;;1.40;;
9767;SDS011;4923;52.520;13.494;2023-12-20T08:57:02;2.17;;;1.00;;
9767;SDS011;4923;52.520;13.494;2023-12-20T08:59:51;13.60;;;1.70;;
9767;SDS011;4923;52.520;13.494;2023-12-20T09:02:38;14.20;;;2.47;;
9767;SDS011;4923;52.520;13.494;2023-12-20T09:05:26;3.47;;;1.00;;
9767;SDS011;4923;52.520;13.494;2023-12-20T09:08:13;4.05;;;0.90;;
9767;SDS011;4923;52.520;13.494;2023-12-20T09:11:00;7.88;;;0.82;;
9767;SDS011;4923;52.520;13.494;2023-12-20T09:13:47;2.80;;;1.02;;
9767;SDS011;4923;52.520;13.494;2023-12-20T09:16:33;6.82;;;1.00;;
9767;SDS011;4923;52.520;13.494;2023-12-20T09:19:20;8.43;;;1.85;;
9767;SDS011;4923;52.520;13.494;2023-12-20T09:22:08;2.28;;;0.82;;
9767;SDS011;4923;52.520;13.494;2023-12-20T09:24:55;6.03;;;1.08;;
9767;SDS011;4923;52.520;13.494;2023-12-20T09:27:43;1.77;;;1.10;;
9767;SDS011;4923;52.520;13.494;2023-12-20T09:30:29;6.75;;;1.50;;
9767;SDS011;4923;52.520;13.494;2023-12-20T09:33:17;7.00;;;1.10;;
9767;SDS011;4923;52.520;13.494;2023-12-20T09:36:04;5.93;;;1.05;;
9767;SDS011;4923;52.520;13.494;2023-12-20T09:38:52;2.67;;;1.50;;
9767;SDS011;4923;52.520;13.494;2023-12-20T09:41:41;7.93;;;1.00;;
9767;SDS011;4923;52.520;13.494;2023-12-20T09:44:30;6.25;;;1.40;;
9767;SDS011;4923;52.520;13.494;2023-12-20T09:47:18;5.22;;;0.98;;
9767;SDS011;4923;52.520;13.494;2023-12-20T09:50:09;9.23;;;1.25;;
9767;SDS011;4923;52.520;13.494;2023-12-20T09:52:56;7.75;;;1.27;;
9767;SDS011;4923;52.520;13.494;2023-12-20T09:55:46;2.90;;;0.70;;
9767;SDS011;4923;52.520;13.494;2023-12-20T09:58:35;4.50;;;1.45;;
9767;SDS011;4923;52.520;13.494;2023-12-20T10:01:23;6.13;;;1.55;;
9767;SDS011;4923;52.520;13.494;2023-12-20T10:04:11;4.45;;;1.30;;
9767;SDS011;4923;52.520;13.494;2023-12-20T10:07:01;6.65;;;1.25;;
9767;SDS011;4923;52.520;13.494;2023-12-20T10:09:49;3.80;;;0.90;;
9767;SDS011;4923;52.520;13.494;2023-12-20T10:12:40;9.73;;;1.60;;
9767;SDS011;4923;52.520;13.494;2023-12-20T10:15:29;9.45;;;1.17;;
9767;SDS011;4923;52.520;13.494;2023-12-20T10:18:17;2.78;;;0.75;;
9767;SDS011;4923;52.520;13.494;2023-12-20T10:21:04;4.30;;;1.17;;
9767;SDS011;4923;52.520;13.494;2023-12-20T10:23:51;4.97;;;1.05;;
9767;SDS011;4923;52.520;13.494;2023-12-20T10:26:39;14.95;;;2.45;;
9767;SDS011;4923;52.520;13.494;2023-12-20T10:29:27;4.82;;;1.17;;
9767;SDS011;4923;52.520;13.494;2023-12-20T10:32:21;6.72;;;1.35;;
9767;SDS011;4923;52.520;13.494;2023-12-20T10:35:09;2.17;;;0.98;;
9767;SDS011;4923;52.520;13.494;2023-12-20T10:37:56;9.68;;;1.23;;
9767;SDS011;4923;52.520;13.494;2023-12-20T10:40:44;7.80;;;1.95;;
9767;SDS011;4923;52.520;13.494;2023-12-20T10:43:31;4.15;;;0.80;;
9767;SDS011;4923;52.520;13.494;2023-12-20T10:46:21;8.65;;;1.65;;
9767;SDS011;4923;52.520;13.494;2023-12-20T10:49:08;4.30;;;1.58;;
9767;SDS011;4923;52.520;13.494;2023-12-20T10:51:56;4.88;;;0.93;;
9767;SDS011;4923;52.520;13.494;2023-12-20T10:54:46;3.22;;;1.13;;
9767;SDS011;4923;52.520;13.494;2023-12-20T10:57:32;5.68;;;1.10;;
9767;SDS011;4923;52.520;13.494;2023-12-20T11:00:21;2.80;;;1.38;;
9767;SDS011;4923;52.520;13.494;2023-12-20T11:03:11;2.35;;;0.70;;
9767;SDS011;4923;52.520;13.494;2023-12-20T11:05:59;3.40;;;0.95;;
9767;SDS011;4923;52.520;13.494;2023-12-20T11:08:50;4.40;;;1.02;;
9767;SDS011;4923;52.520;13.494;2023-12-20T11:11:45;2.95;;;1.13;;
9767;SDS011;4923;52.520;13.494;2023-12-20T11:14:42;14.38;;;1.10;;
9767;SDS011;4923;52.520;13.494;2023-12-20T11:17:32;7.95;;;1.20;;
9767;SDS011;4923;52.520;13.494;2023-12-20T11:20:21;7.43;;;1.55;;
9767;SDS011;4923;52.520;13.494;2023-12-20T11:23:09;14.57;;;1.60;;
9767;SDS011;4923;52.520;13.494;2023-12-20T11:25:57;5.97;;;1.05;;
9767;SDS011;4923;52.520;13.494;2023-12-20T11:28:44;4.70;;;1.35;;
9767;SDS011;4923;52.520;13.494;2023-12-20T11:31:35;3.65;;;1.00;;
9767;SDS011;4923;52.520;13.494;2023-12-20T11:34:27;5.28;;;0.93;;
9767;SDS011;4923;52.520;13.494;2023-12-20T11:37:15;10.38;;;2.03;;
9767;SDS011;4923;52.520;13.494;2023-12-20T11:40:03;3.28;;;1.50;;
9767;SDS011;4923;52.520;13.494;2023-12-20T11:42:52;4.63;;;0.90;;
9767;SDS011;4923;52.520;13.494;2023-12-20T11:45:46;5.90;;;0.90;;
9767;SDS011;4923;52.520;13.494;2023-12-20T11:48:37;5.40;;;1.10;;
9767;SDS011;4923;52.520;13.494;2023-12-20T11:51:24;7.22;;;1.30;;
9767;SDS011;4923;52.520;13.494;2023-12-20T11:54:12;7.28;;;1.70;;
9767;SDS011;4923;52.520;13.494;2023-12-20T11:57:01;5.22;;;1.20;;
9767;SDS011;4923;52.520;13.494;2023-12-20T11:59:48;4.72;;;1.00;;
9767;SDS011;4923;52.520;13.494;2023-12-20T12:02:36;5.13;;;1.20;;
9767;SDS011;4923;52.520;13.494;2023-12-20T12:05:23;10.43;;;1.48;;
9767;SDS011;4923;52.520;13.494;2023-12-20T12:08:09;9.07;;;1.20;;
9767;SDS011;4923;52.520;13.494;2023-12-20T12:10:58;4.25;;;0.95;;
9767;SDS011;4923;52.520;13.494;2023-12-20T12:13:44;3.72;;;1.17;;
9767;SDS011;4923;52.520;13.494;2023-12-20T12:16:31;5.13;;;0.90;;
9767;SDS011;4923;52.520;13.494;2023-12-20T12:19:21;2.97;;;0.90;;
9767;SDS011;4923;52.520;13.494;2023-12-20T12:22:09;2.75;;;0.85;;
9767;SDS011;4923;52.520;13.494;2023-12-20T12:24:59;22.75;;;1.75;;
9767;SDS011;4923;52.520;13.494;2023-12-20T12:27:57;3.70;;;1.05;;
9767;SDS011;4923;52.520;13.494;2023-12-20T12:30:55;4.22;;;1.15;;
9767;SDS011;4923;52.520;13.494;2023-12-20T12:33:43;0.82;;;0.80;;
9767;SDS011;4923;52.520;13.494;2023-12-20T12:36:29;6.25;;;1.27;;
9767;SDS011;4923;52.520;13.494;2023-12-20T12:39:17;3.78;;;0.95;;
9767;SDS011;4923;52.520;13.494;2023-12-20T12:42:04;5.45;;;1.13;;
9767;SDS011;4923;52.520;13.494;2023-12-20T12:44:52;6.18;;;0.93;;
9767;SDS011;4923;52.520;13.494;2023-12-20T12:47:39;1.13;;;1.02;;
9767;SDS011;4923;52.520;13.494;2023-12-20T12:50:26;7.90;;;1.30;;
9767;SDS011;4923;52.520;13.494;2023-12-20T12:53:14;9.40;;;1.38;;
9767;SDS011;4923;52.520;13.494;2023-12-20T12:56:00;1.48;;;0.95;;
9767;SDS011;4923;52.520;13.494;2023-12-20T12:58:47;2.58;;;1.50;;
9767;SDS011;4923;52.520;13.494;2023-12-20T13:01:36;6.63;;;1.33;;
9767;SDS011;4923;52.520;13.494;2023-12-20T13:04:24;2.15;;;0.85;;
9767;SDS011;4923;52.520;13.494;2023-12-20T13:07:10;3.60;;;1.15;;
9767;SDS011;4923;52.520;13.494;2023-12-20T13:09:58;4.75;;;1.00;;
9767;SDS011;4923;52.520;13.494;2023-12-20T13:12:45;5.47;;;1.10;;
9767;SDS011;4923;52.520;13.494;2023-12-20T13:15:32;4.90;;;1.38;;
9767;SDS011;4923;52.520;13.494;2023-12-20T13:18:20;7.82;;;1.27;;
9767;SDS011;4923;52.520;13.494;2023-12-20T13:21:07;4.68;;;1.30;;
9767;SDS011;4923;52.520;13.494;2023-12-20T13:23:54;3.53;;;1.50;;
9767;SDS011;4923;52.520;13.494;2023-12-20T13:26:41;3.92;;;1.20;;
9767;SDS011;4923;52.520;13.494;2023-12-20T13:29:27;1.02;;;0.60;;
9767;SDS011;4923;52.520;13.494;2023-12-20T13:32:14;1.42;;;0.57;;
9767;SDS011;4923;52.520;13.494;2023-12-20T13:35:03;0.30;;;0.30;;
9767;SDS011;4923;52.520;13.494;2023-12-20T13:37:50;0.50;;;0.40;;
9767;SDS011;4923;52.520;13.494;2023-12-20T13:40:37;0.40;;;0.40;;
9767;SDS011;4923;52.520;13.494;2023-12-20T13:43:24;1.42;;;0.57;;
9767;SDS011;4923;52.520;13.494;2023-12-20T13:46:11;4.80;;;0.40;;
9767;SDS011;4923;52.520;13.494;2023-12-20T13:48:59;2.05;;;0.60;;
9767;SDS011;4923;52.520;13.494;2023-12-20T13:51:48;0.45;;;0.45;;
9767;SDS011;4923;52.520;13.494;2023-12-20T13:54:35;1.45;;;0.43;;
9767;SDS011;4923;52.520;13.494;2023-12-20T13:57:22;0.52;;;0.40;;
9767;SDS011;4923;52.520;13.494;2023-12-20T14:00:09;2.05;;;0.40;;
9767;SDS011;4923;52.520;13.494;2023-12-20T14:02:59;0.40;;;0.40;;
9767;SDS011;4923;52.520;13.494;2023-12-20T14:05:47;1.95;;;0.50;;
9767;SDS011;4923;52.520;13.494;2023-12-20T14:08:35;2.20;;;0.50;;
9767;SDS011;4923;52.520;13.494;2023-12-20T14:11:22;1.08;;;0.47;;
9767;SDS011;4923;52.520;13.494;2023-12-20T14:14:09;0.50;;;0.50;;
9767;SDS011;4923;52.520;13.494;2023-12-20T14:16:56;0.50;;;0.50;;
9767;SDS011;4923;52.520;13.494;2023-12-20T14:19:43;0.50;;;0.50;;
9767;SDS011;4923;52.520;13.494;2023-12-20T14:22:30;2.10;;;0.40;;
9767;SDS011;4923;52.520;13.494;2023-12-20T14:25:18;0.60;;;0.40;;
9767;SDS011;4923;52.520;13.494;2023-12-20T14:28:05;3.90;;;0.38;;
9767;SDS011;4923;52.520;13.494;2023-12-20T14:30:52;0.30;;;0.30;;
9767;SDS011;4923;52.520;13.494;2023-12-20T14:33:39;1.48;;;0.38;;
9767;SDS011;4923;52.520;13.494;2023-12-20T14:36:27;0.30;;;0.30;;
9767;SDS011;4923;52.520;13.494;2023-12-20T14:39:15;2.70;;;0.40;;
9767;SDS011;4923;52.520;13.494;2023-12-20T14:42:04;2.03;;;0.30;;
9767;SDS011;4923;52.520;13.494;2023-12-20T14:44:52;0.30;;;0.30;;
9767;SDS011;4923;52.520;13.494;2023-12-20T14:47:39;1.75;;;0.32;;
9767;SDS011;4923;52.520;13.494;2023-12-20T14:50:26;3.22;;;0.95;;
9767;SDS011;4923;52.520;13.494;2023-12-20T14:53:13;0.82;;;0.40;;
9767;SDS011;4923;52.520;13.494;2023-12-20T14:56:01;2.25;;;0.30;;
9767;SDS011;4923;52.520;13.494;2023-12-20T14:58:50;1.33;;;0.20;;
9767;SDS011;4923;52.520;13.494;2023-12-20T15:01:37;0.50;;;0.40;;
9767;SDS011;4923;52.520;13.494;2023-12-20T15:04:25;4.13;;;0.45;;
9767;SDS011;4923;52.520;13.494;2023-12-20T15:07:15;0.40;;;0.40;;
9767;SDS011;4923;52.520;13.494;2023-12-20T15:10:02;1.10;;;0.40;;
9767;SDS011;4923;52.520;13.494;2023-12-20T15:12:49;9.45;;;0.70;;
9767;SDS011;4923;52.520;13.494;2023-12-20T15:15:37;3.08;;;0.30;;
9767;SDS011;4923;52.520;13.494;2023-12-20T15:18:24;4.20;;;0.52;;
9767;SDS011;4923;52.520;13.494;2023-12-20T15:21:11;0.57;;;0.40;;
9767;SDS011;4923;52.520;13.494;2023-12-20T15:23:58;1.98;;;0.30;;
9767;SDS011;4923;52.520;13.494;2023-12-20T15:26:54;1.65;;;0.65;;
9767;SDS011;4923;52.520;13.494;2023-12-20T15:29:42;1.10;;;0.40;;
9767;SDS011;4923;52.520;13.494;2023-12-20T15:32:31;1.85;;;0.40;;
9767;SDS011;4923;52.520;13.494;2023-12-20T15:35:19;0.52;;;0.40;;
9767;SDS011;4923;52.520;13.494;2023-12-20T15:38:06;0.70;;;0.50;;
9767;SDS011;4923;52.520;13.494;2023-12-20T15:40:53;2.22;;;0.30;;
9767;SDS011;4923;52.520;13.494;2023-12-20T15:43:39;1.92;;;0.50;;
9767;SDS011;4923;52.520;13.494;2023-12-20T15:46:26;3.45;;;0.50;;
9767;SDS011;4923;52.520;13.494;2023-12-20T15:49:14;0.75;;;0.40;;
9767;SDS011;4923;52.520;13.494;2023-12-20T15:52:03;4.05;;;1.00;;
9767;SDS011;4923;52.520;13.494;2023-12-20T15:54:50;1.60;;;0.38;;
9767;SDS011;4923;52.520;13.494;2023-12-20T15:57:38;4.45;;;0.50;;
9767;SDS011;4923;52.520;13.494;2023-12-20T16:00:25;3.08;;;1.05;;
9767;SDS011;4923;52.520;13.494;2023-12-20T16:03:12;2.17;;;0.50;;
9767;SDS011;4923;52.520;13.494;2023-12-20T16:06:00;1.48;;;0.60;;
9767;SDS011;4923;52.520;13.494;2023-12-20T16:08:48;4.05;;;1.10;;
9767;SDS011;4923;52.520;13.494;2023-12-20T16:11:35;1.40;;;0.45;;
9767;SDS011;4923;52.520;13.494;2023-12-20T16:14:21;1.00;;;0.50;;
9767;SDS011;4923;52.520;13.494;2023-12-20T16:17:10;2.15;;;0.73;;
9767;SDS011;4923;52.520;13.494;2023-12-20T16:19:57;4.13;;;0.60;;
9767;SDS011;4923;52.520;13.494;2023-12-20T16:22:45;0.68;;;0.43;;
9767;SDS011;4923;52.520;13.494;2023-12-20T16:25:32;1.17;;;0.70;;
9767;SDS011;4923;52.520;13.494;2023-12-20T16:28:22;4.20;;;0.90;;
9767;SDS011;4923;52.520;13.494;2023-12-20T16:31:10;3.60;;;0.90;;
9767;SDS011;4923;52.520;13.494;2023-12-20T16:33:57;3.85;;;0.80;;
9767;SDS011;4923;52.520;13.494;2023-12-20T16:36:48;3.60;;;0.60;;
9767;SDS011;4923;52.520;13.494;2023-12-20T16:39:38;4.38;;;0.68;;
9767;SDS011;4923;52.520;13.494;2023-12-20T16:42:25;1.83;;;0.50;;
9767;SDS011;4923;52.520;13.494;2023-12-20T16:45:11;2.28;;;0.57;;
9767;SDS011;4923;52.520;13.494;2023-12-20T16:47:58;2.47;;;0.90;;
9767;SDS011;4923;52.520;13.494;2023-12-20T16:50:45;6.18;;;0.80;;
9767;SDS011;4923;52.520;13.494;2023-12-20T16:53:32;4.50;;;0.88;;
9767;SDS011;4923;52.520;13.494;2023-12-20T16:56:20;3.75;;;0.90;;
9767;SDS011;4923;52.520;13.494;2023-12-20T16:59:08;3.20;;;0.75;;
9767;SDS011;4923;52.520;13.494;2023-12-20T17:01:54;1.13;;;0.65;;
9767;SDS011;4923;52.520;13.494;2023-12-20T17:04:41;1.15;;;1.05;;